Time;durP1;ratioP1;P1;durP2;ratioP2;P2;SDS_P1;SDS_P2;PMS_P1;PMS_P2;Temp;Humidity;BMP_temperature;BMP_pressure;BME280_temperature;BME280_humidity;BME280_pressure;Samples;Min_cycle;Max_cycle;Signal;HPM_P1;HPM_P2
2024/02/06 00:04:42;;;;;;;7.50;6.90;;;;;;;11.05;100.00;101936.44;10564211;28;20040;-76
2024/02/06 00:10:07;;;;;;;11.07;10.00;;;;;;;11.12;98.56;101941.06;10557896;28;20399;-75
2024/02/06 00:15:30;;;;;;;5.57;4.72;;;;;;;11.05;98.40;101930.25;10563065;28;20506;-76
2024/02/06 00:20:53;;;;;;;8.07;5.40;;;;;;;11.11;98.12;101919.88;10564335;28;20043;-76
2024/02/06 00:26:17;;;;;;;9.90;5.53;;;;;;;11.14;95.25;101928.81;10534478;28;20456;-76
2024/02/06 00:31:39;;;;;;;1.90;1.60;;;;;;;11.05;96.04;101917.03;10577039;28;20514;-76
2024/02/06 00:37:02;;;;;;;2.20;1.60;;;;;;;10.99;95.98;101922.13;10550344;28;20043;-76
2024/02/06 00:42:26;;;;;;;1.30;1.20;;;;;;;10.95;94.75;101931.72;10565610;28;20046;-76
2024/02/06 00:47:49;;;;;;;2.05;1.48;;;;;;;10.93;93.91;101929.84;10574877;28;20073;-76
2024/02/06 00:53:12;;;;;;;4.95;3.75;;;;;;;11.16;91.55;101936.75;10551554;27;20455;-76
2024/02/06 00:58:36;;;;;;;4.18;2.58;;;;;;;11.29;89.51;101931.00;10520443;28;20435;-76
2024/02/06 01:03:58;;;;;;;7.65;6.85;;;;;;;11.22;87.45;101925.50;10542012;28;20044;-76
2024/02/06 01:09:21;;;;;;;6.70;6.20;;;;;;;11.12;85.77;101927.84;10563240;28;20059;-75
2024/02/06 01:14:45;;;;;;;5.50;5.00;;;;;;;11.03;86.41;101930.19;10602380;27;20444;-76
2024/02/06 01:20:09;;;;;;;4.85;3.22;;;;;;;10.95;85.18;101930.81;10621093;27;20162;-76
2024/02/06 01:25:32;;;;;;;7.40;6.60;;;;;;;10.84;85.14;101916.31;10603178;27;20047;-75
2024/02/06 01:30:56;;;;;;;8.02;6.25;;;;;;;10.77;86.54;101936.34;10592532;27;20043;-75
2024/02/06 01:36:19;;;;;;;8.93;7.13;;;;;;;10.64;87.20;101942.97;10597337;27;20043;-75
2024/02/06 01:41:41;;;;;;;7.47;3.75;;;;;;;10.43;90.37;101941.34;10605594;27;20047;-76
2024/02/06 01:47:10;;;;;;;3.70;3.00;;;;;;;10.49;91.83;101950.38;10618346;27;20063;-76
2024/02/06 01:52:32;;;;;;;5.70;3.75;;;;;;;10.51;90.85;101947.78;10614080;27;20114;-76
2024/02/06 01:57:56;;;;;;;12.35;10.50;;;;;;;10.38;92.27;101941.16;10606188;27;20042;-76
2024/02/06 02:03:21;;;;;;;5.82;4.05;;;;;;;10.24;94.75;101939.81;10587564;27;20524;-76
2024/02/06 02:08:45;;;;;;;2.75;1.90;;;;;;;10.33;92.70;101935.72;10606264;27;20042;-76
2024/02/06 02:14:09;;;;;;;15.35;9.68;;;;;;;10.28;92.16;101939.06;10601767;27;20054;-76
2024/02/06 02:19:33;;;;;;;23.23;15.73;;;;;;;10.12;92.89;101934.03;10593476;27;20047;-76
2024/02/06 02:24:57;;;;;;;36.90;24.50;;;;;;;10.03;92.07;101942.53;10558926;28;20080;-76
2024/02/06 02:30:20;;;;;;;19.33;14.27;;;;;;;9.91;93.71;101936.81;10596971;27;20051;-76
2024/02/06 02:35:44;;;;;;;10.30;6.75;;;;;;;9.63;96.60;101939.22;10599549;27;20068;-76
2024/02/06 02:41:11;;;;;;;15.18;10.85;;;;;;;9.44;99.38;101940.25;10566581;27;20066;-77
2024/02/06 02:46:33;;;;;;;20.35;13.38;;;;;;;9.35;100.00;101943.44;10595774;27;20055;-75
2024/02/06 02:51:56;;;;;;;11.23;8.80;;;;;;;9.30;100.00;101938.81;10588948;27;20128;-75
2024/02/06 02:57:20;;;;;;;14.40;10.63;;;;;;;9.48;100.00;101942.16;10580384;27;20429;-76
2024/02/06 03:02:43;;;;;;;12.30;9.10;;;;;;;9.58;100.00;101944.34;10582929;28;20051;-76
2024/02/06 03:08:06;;;;;;;7.97;6.80;;;;;;;9.49;100.00;101941.34;10573814;28;20038;-76
2024/02/06 03:13:30;;;;;;;7.18;5.90;;;;;;;9.76;100.00;101942.41;10561343;27;20058;-76
2024/02/06 03:18:53;;;;;;;7.57;5.65;;;;;;;9.69;100.00;101942.09;10604806;27;20399;-75
2024/02/06 03:24:16;;;;;;;5.68;3.85;;;;;;;9.84;100.00;101950.59;10616247;27;20111;-76
2024/02/06 03:29:42;;;;;;;6.40;5.28;;;;;;;9.94;100.00;101950.09;10627439;27;20076;-76
2024/02/06 03:35:05;;;;;;;8.00;7.20;;;;;;;10.01;100.00;101949.47;10616598;27;20135;-76
2024/02/06 03:40:28;;;;;;;10.40;8.63;;;;;;;9.82;100.00;101955.81;10590066;27;20058;-76
2024/02/06 03:45:52;;;;;;;7.80;5.68;;;;;;;9.49;100.00;101959.78;10632460;27;20096;-76
2024/02/06 03:51:15;;;;;;;8.52;6.75;;;;;;;9.48;100.00;101956.25;10594006;27;20058;-76
2024/02/06 03:56:37;;;;;;;7.65;6.57;;;;;;;9.40;100.00;101962.94;10615939;27;20055;-75
2024/02/06 04:02:03;;;;;;;7.78;5.68;;;;;;;9.31;100.00;101951.16;10610307;27;20700;-76
2024/02/06 04:07:25;;;;;;;11.00;7.88;;;;;;;9.21;100.00;101960.41;10615445;27;20054;-75
2024/02/06 04:12:48;;;;;;;6.20;5.60;;;;;;;9.25;100.00;101967.63;10611522;27;20039;-76
2024/02/06 04:18:12;;;;;;;5.63;4.78;;;;;;;9.14;100.00;101961.91;10611145;27;20047;-76
2024/02/06 04:23:35;;;;;;;4.53;3.78;;;;;;;9.14;100.00;101974.19;10594522;27;20116;-75
2024/02/06 04:28:57;;;;;;;9.15;8.30;;;;;;;9.25;100.00;101978.16;10629055;27;20074;-75
2024/02/06 04:34:22;;;;;;;16.15;14.82;;;;;;;9.41;100.00;101977.94;10617581;27;20359;-76
2024/02/06 04:39:44;;;;;;;8.05;7.18;;;;;;;9.46;100.00;101980.75;10619515;27;20106;-76
2024/02/06 04:45:07;;;;;;;9.82;7.75;;;;;;;9.22;100.00;101987.66;10610271;27;20049;-75
2024/02/06 04:50:32;;;;;;;9.80;5.30;;;;;;;9.07;100.00;101991.47;10610851;27;20125;-75
2024/02/06 04:55:54;;;;;;;6.72;6.00;;;;;;;9.01;100.00;101995.59;10598935;27;20050;-76
2024/02/06 05:01:17;;;;;;;10.23;8.98;;;;;;;9.03;100.00;101999.19;10614089;27;20514;-76
2024/02/06 05:06:41;;;;;;;13.95;10.48;;;;;;;8.89;100.00;102000.34;10613760;27;20123;-76
2024/02/06 05:12:06;;;;;;;4.47;3.03;;;;;;;9.04;100.00;102003.63;10639796;27;20049;-75
2024/02/06 05:17:28;;;;;;;7.30;6.60;;;;;;;9.18;100.00;102013.00;10606240;27;20047;-75
2024/02/06 05:22:53;;;;;;;16.73;15.05;;;;;;;9.15;100.00;102019.03;10622270;27;20513;-76
2024/02/06 05:28:15;;;;;;;3.47;3.17;;;;;;;9.14;100.00;102019.88;10619346;27;20057;-76
2024/02/06 05:33:38;;;;;;;2.33;2.13;;;;;;;9.48;100.00;102022.16;10642390;27;20051;-75
2024/02/06 05:39:02;;;;;;;9.63;7.93;;;;;;;9.44;100.00;102027.25;10604495;27;20061;-75
2024/02/06 05:44:25;;;;;;;8.13;5.90;;;;;;;9.30;100.00;102029.31;10603126;27;20039;-75
2024/02/06 05:49:47;;;;;;;7.65;6.20;;;;;;;9.54;100.00;102046.09;10603582;27;20474;-76
2024/02/06 05:55:12;;;;;;;6.95;4.63;;;;;;;9.60;100.00;102049.00;10594620;27;20052;-76
2024/02/06 06:00:34;;;;;;;8.35;6.20;;;;;;;11.46;100.00;102056.75;10560998;28;20058;-76
2024/02/06 06:05:57;;;;;;;11.23;8.27;;;;;;;15.61;67.43;102060.84;10571148;27;20547;-75
2024/02/06 06:11:21;;;;;;;7.97;4.65;;;;;;;18.29;52.17;102047.66;10608174;27;20396;-76
2024/02/06 06:16:44;;;;;;;5.40;3.00;;;;;;;19.77;46.90;102047.94;10587046;27;20047;-77
2024/02/06 06:22:07;;;;;;;6.22;3.83;;;;;;;21.42;42.50;102047.16;10572039;27;20036;-76
2024/02/06 06:27:31;;;;;;;7.30;4.53;;;;;;;22.45;40.35;102053.25;10569977;27;20127;-75
2024/02/06 06:32:54;;;;;;;7.72;5.22;;;;;;;23.75;37.86;102049.53;10600730;27;20043;-75
2024/02/06 06:38:16;;;;;;;8.43;3.00;;;;;;;24.86;36.29;102061.66;10600743;27;20055;-74
2024/02/06 06:43:40;;;;;;;7.13;4.38;;;;;;;25.67;34.60;102073.25;10608946;27;20032;-77
2024/02/06 06:49:03;;;;;;;7.72;4.10;;;;;;;26.30;34.15;102058.94;10584071;27;20042;-77
2024/02/06 06:54:26;;;;;;;4.72;3.58;;;;;;;27.02;32.38;102063.06;10592252;27;20123;-77
2024/02/06 06:59:50;;;;;;;8.18;4.70;;;;;;;27.16;31.59;102059.00;10614054;27;20046;-78
2024/02/06 07:05:12;;;;;;;10.00;5.35;;;;;;;27.14;31.29;102065.38;10611835;27;20050;-77
2024/02/06 07:10:35;;;;;;;9.13;5.60;;;;;;;28.45;30.22;102057.16;10583759;27;20103;-77
2024/02/06 07:15:59;;;;;;;10.25;5.25;;;;;;;29.29;28.83;102065.59;10575519;28;20070;-78
2024/02/06 07:21:22;;;;;;;7.85;4.50;;;;;;;29.68;28.41;102064.88;10588139;28;20604;-79
2024/02/06 07:26:45;;;;;;;5.10;3.92;;;;;;;30.21;27.61;102061.66;10602380;28;20530;-78
2024/02/06 07:32:09;;;;;;;12.77;8.63;;;;;;;31.42;27.14;102057.66;10597838;27;20050;-77
2024/02/06 07:37:31;;;;;;;20.02;15.02;;;;;;;32.25;26.61;102066.06;10592635;27;20494;-78
2024/02/06 07:42:55;;;;;;;29.40;14.65;;;;;;;32.35;26.29;102056.41;10596819;27;20047;-77
2024/02/06 07:48:20;;;;;;;7.50;3.17;;;;;;;32.14;27.08;102057.56;10607042;27;20548;-79
2024/02/06 07:53:43;;;;;;;4.55;2.70;;;;;;;32.43;26.69;102057.72;10568285;27;20095;-78
2024/02/06 07:59:05;;;;;;;7.18;4.22;;;;;;;33.50;25.89;102060.72;10607479;27;20132;-79
2024/02/06 08:04:30;;;;;;;6.43;2.97;;;;;;;34.67;24.57;102055.28;10576770;28;20489;-79
2024/02/06 08:09:52;;;;;;;7.63;3.47;;;;;;;34.68;24.11;102066.16;10610321;27;20047;-77
2024/02/06 08:15:15;;;;;;;17.30;9.43;;;;;;;35.39;23.71;102067.91;10591345;27;20058;-77
2024/02/06 08:20:39;;;;;;;8.20;4.78;;;;;;;35.75;23.09;102067.31;10588655;27;20062;-77
2024/02/06 08:26:02;;;;;;;10.43;5.28;;;;;;;35.26;23.35;102070.63;10586478;27;20433;-76
2024/02/06 08:31:25;;;;;;;13.70;5.50;;;;;;;35.86;22.89;102064.69;10565146;27;20052;-77
2024/02/06 08:36:49;;;;;;;9.98;6.63;;;;;;;35.76;22.56;102058.97;10605451;27;20051;-77
2024/02/06 08:42:12;;;;;;;5.00;2.72;;;;;;;34.80;23.61;102067.25;10592228;27;20456;-77
2024/02/06 08:47:34;;;;;;;7.97;3.97;;;;;;;34.74;23.92;102060.31;10563373;28;20116;-77
2024/02/06 08:52:58;;;;;;;15.48;7.68;;;;;;;34.41;24.04;102062.44;10547325;28;20058;-77
2024/02/06 08:58:20;;;;;;;7.63;2.90;;;;;;;34.35;24.21;102065.59;10584043;27;20502;-77
2024/02/06 09:03:43;;;;;;;7.57;2.90;;;;;;;34.95;23.63;102052.53;10577053;27;20054;-78
2024/02/06 09:09:07;;;;;;;6.50;2.40;;;;;;;34.93;23.21;102050.84;10577310;28;20542;-77
2024/02/06 09:14:29;;;;;;;7.35;2.58;;;;;;;34.50;24.03;102055.50;10603605;27;20059;-77
2024/02/06 09:19:52;;;;;;;7.00;3.00;;;;;;;34.31;23.90;102061.28;10605230;27;20078;-77
2024/02/06 09:25:16;;;;;;;5.07;2.70;;;;;;;34.14;23.81;102066.91;10643717;27;20060;-77
2024/02/06 09:30:39;;;;;;;6.55;3.70;;;;;;;34.19;23.86;102060.16;10648490;27;20428;-77
2024/02/06 09:36:04;;;;;;;3.17;2.08;;;;;;;33.41;24.07;102061.25;10604231;27;20039;-77
2024/02/06 09:41:28;;;;;;;10.82;3.60;;;;;;;33.41;24.63;102053.03;10604266;27;20047;-78
2024/02/06 09:46:51;;;;;;;6.15;2.33;;;;;;;33.71;24.45;102050.38;10614251;27;20047;-77
2024/02/06 09:52:15;;;;;;;5.72;3.03;;;;;;;34.08;24.03;102037.13;10590577;27;20059;-77
2024/02/06 09:57:41;;;;;;;4.32;2.25;;;;;;;34.30;23.66;102027.47;10637124;27;20050;-77
2024/02/06 10:03:09;;;;;;;8.25;3.03;;;;;;;33.50;23.83;102016.91;10617570;27;20051;-77
2024/02/06 10:08:33;;;;;;;5.90;2.75;;;;;;;33.09;24.43;102015.69;10587610;27;20047;-77
2024/02/06 10:13:57;;;;;;;4.95;2.53;;;;;;;32.69;25.11;102004.31;10569836;27;20055;-78
2024/02/06 10:19:19;;;;;;;8.07;4.47;;;;;;;32.56;25.32;102005.97;10588862;27;20066;-77
2024/02/06 10:24:42;;;;;;;7.00;2.80;;;;;;;33.02;24.85;102003.34;10587296;27;20043;-77
2024/02/06 10:30:08;;;;;;;3.58;1.48;;;;;;;32.47;26.17;101994.66;10588201;27;20051;-76
2024/02/06 10:35:31;;;;;;;9.82;3.63;;;;;;;31.98;26.30;102000.06;10586353;27;20047;-76
2024/02/06 10:40:54;;;;;;;5.55;2.20;;;;;;;32.43;25.77;101999.41;10587954;27;20475;-77
2024/02/06 10:46:22;;;;;;;4.95;2.70;;;;;;;32.54;24.75;101996.09;10600017;27;20055;-77
2024/02/06 10:51:45;;;;;;;4.10;2.75;;;;;;;32.68;25.08;101990.75;10601595;27;20046;-77
2024/02/06 10:57:09;;;;;;;8.55;2.80;;;;;;;32.24;25.75;101983.16;10602547;27;20051;-77
2024/02/06 11:02:34;;;;;;;6.28;2.63;;;;;;;31.60;26.72;101977.53;10585998;27;20043;-75
2024/02/06 11:08:01;;;;;;;4.38;2.10;;;;;;;31.25;27.17;101965.69;10585031;27;20039;-78
2024/02/06 11:13:28;;;;;;;6.03;2.35;;;;;;;30.02;28.09;101960.81;10606559;27;20558;-78
2024/02/06 11:18:57;;;;;;;;;;;;;;;29.68;28.70;101948.69;10612158;27;20158;-75
2024/02/06 11:24:20;;;;;;;7.35;2.60;;;;;;;28.71;30.12;101944.69;10590206;27;20291;-77
2024/02/06 11:29:49;;;;;;;9.45;3.40;;;;;;;28.68;30.40;101943.94;10572593;27;20036;-76
2024/02/06 11:35:13;;;;;;;10.25;5.28;;;;;;;28.43;31.32;101944.91;10578805;27;20047;-76
2024/02/06 11:40:41;;;;;;;14.63;8.73;;;;;;;28.21;32.91;101937.69;10595972;27;20050;-76
2024/02/06 11:46:03;;;;;;;10.88;7.15;;;;;;;27.46;34.22;101931.38;10593813;27;20282;-77
2024/02/06 11:51:28;;;;;;;11.95;7.20;;;;;;;26.14;37.22;101929.34;10580134;27;20039;-77
2024/02/06 11:56:51;;;;;;;9.02;4.43;;;;;;;25.09;39.24;101926.00;10609777;27;20058;-75
2024/02/06 12:02:17;;;;;;;10.00;6.18;;;;;;;24.37;41.10;101920.53;10605766;27;20051;-76
2024/02/06 12:07:52;;;;;;;5.45;3.00;;;;;;;23.89;43.82;101920.69;10598036;27;20058;-76
2024/02/06 12:13:16;;;;;;;3.35;2.38;;;;;;;23.25;49.61;101919.19;10625770;27;20047;-77
2024/02/06 12:18:39;;;;;;;36.50;20.05;;;;;;;22.82;56.49;101916.34;10608023;27;20514;-77
2024/02/06 12:24:04;;;;;;;10.98;6.85;;;;;;;22.45;61.79;101902.53;10567552;27;20047;-76
2024/02/06 12:29:26;;;;;;;7.55;4.35;;;;;;;22.14;68.82;101901.22;10564157;28;20528;-77
2024/02/06 12:34:49;;;;;;;8.32;3.75;;;;;;;21.81;76.74;101910.56;10605500;27;20051;-76
2024/02/06 12:40:13;;;;;;;9.00;4.78;;;;;;;21.49;83.60;101910.94;10591759;27;20414;-76
2024/02/06 12:45:37;;;;;;;7.35;2.63;;;;;;;21.24;88.01;101910.31;10577303;28;20044;-76
2024/02/06 12:51:00;;;;;;;21.30;8.90;;;;;;;21.16;89.70;101897.84;10561093;27;20055;-76
2024/02/06 12:56:25;;;;;;;8.10;3.42;;;;;;;21.06;91.86;101899.72;10569297;27;20048;-77
2024/02/06 13:01:48;;;;;;;11.23;5.47;;;;;;;20.94;94.25;101897.13;10557620;27;20412;-75
2024/02/06 13:07:19;;;;;;;19.08;7.25;;;;;;;20.80;97.90;101891.91;10520463;28;20113;-75
2024/02/06 13:12:44;;;;;;;11.68;3.92;;;;;;;20.72;99.96;101893.75;10530977;27;20047;-79
2024/02/06 13:18:07;;;;;;;22.15;8.43;;;;;;;20.61;100.00;101899.19;10593695;27;20046;-77
2024/02/06 13:23:30;;;;;;;10.23;6.30;;;;;;;20.51;100.00;101896.59;10581719;27;20061;-77
2024/02/06 13:29:00;;;;;;;11.32;4.70;;;;;;;20.42;100.00;101891.28;10564907;27;20047;-77
2024/02/06 13:34:22;;;;;;;12.02;4.35;;;;;;;20.34;100.00;101893.16;10600597;27;20111;-77
2024/02/06 13:39:45;;;;;;;15.63;7.43;;;;;;;20.27;100.00;101895.84;10583783;27;20045;-78
2024/02/06 13:45:10;;;;;;;13.23;5.00;;;;;;;20.24;100.00;101889.56;10609494;27;20088;-78
2024/02/06 13:50:33;;;;;;;7.22;3.28;;;;;;;20.16;100.00;101894.09;10599416;27;20050;-82
2024/02/06 13:55:56;;;;;;;20.25;7.47;;;;;;;20.00;100.00;101889.72;10587046;27;20674;-76
2024/02/06 14:01:23;;;;;;;23.42;11.90;;;;;;;19.87;100.00;101888.91;10573103;27;20054;-76
2024/02/06 14:06:46;;;;;;;17.40;5.47;;;;;;;19.74;100.00;101892.53;10589824;27;20067;-77
2024/02/06 14:12:08;;;;;;;16.55;4.93;;;;;;;19.63;100.00;101903.25;10603772;27;20649;-76
2024/02/06 14:17:32;;;;;;;8.70;3.60;;;;;;;19.51;100.00;101905.97;10645246;27;20053;-77
2024/02/06 14:22:55;;;;;;;13.40;3.33;;;;;;;19.35;100.00;101918.50;10643897;27;20044;-76
2024/02/06 14:28:17;;;;;;;12.20;3.90;;;;;;;19.23;100.00;101921.19;10644662;27;20053;-76
2024/02/06 14:33:41;;;;;;;11.95;3.75;;;;;;;19.02;100.00;101914.09;10627757;27;20134;-77
2024/02/06 14:39:04;;;;;;;10.00;3.60;;;;;;;18.87;100.00;101911.41;10602203;27;20510;-76
2024/02/06 14:44:27;;;;;;;7.90;3.30;;;;;;;18.71;100.00;101896.22;10585766;27;20035;-76
2024/02/06 14:49:51;;;;;;;16.75;4.43;;;;;;;18.53;100.00;101899.75;10584590;27;20470;-76
2024/02/06 14:55:14;;;;;;;14.65;3.67;;;;;;;18.44;100.00;101905.09;10586563;27;20051;-77
2024/02/06 15:00:36;;;;;;;23.15;5.53;;;;;;;18.27;100.00;101906.84;10587514;27;20051;-76
2024/02/06 15:06:00;;;;;;;19.15;5.43;;;;;;;18.16;100.00;101913.94;10587096;27;20042;-77
2024/02/06 15:11:23;;;;;;;28.27;7.95;;;;;;;18.04;100.00;101922.81;10573203;28;20371;-76
2024/02/06 15:16:46;;;;;;;16.73;5.20;;;;;;;17.91;100.00;101915.66;10557322;28;20492;-76
2024/02/06 15:22:10;;;;;;;23.40;14.32;;;;;;;17.76;100.00;101923.59;10547198;28;20522;-76
2024/02/06 15:27:33;;;;;;;18.00;7.05;;;;;;;17.63;100.00;101927.06;10537580;28;20056;-76
2024/02/06 15:32:55;;;;;;;15.38;4.80;;;;;;;17.56;100.00;101920.78;10558017;28;20052;-76
2024/02/06 15:38:19;;;;;;;39.60;28.00;;;;;;;17.40;100.00;101916.22;10571679;28;20054;-75
2024/02/06 15:43:42;;;;;;;20.15;9.27;;;;;;;17.20;100.00;101926.75;10523420;28;20121;-74
2024/02/06 15:49:06;;;;;;;22.02;7.47;;;;;;;17.03;100.00;101936.44;10527066;28;20108;-73
2024/02/06 15:54:31;;;;;;;20.65;7.70;;;;;;;17.09;100.00;101934.69;10516063;27;20513;-74
2024/02/06 15:59:54;;;;;;;41.83;17.27;;;;;;;17.20;100.00;101932.09;10524229;27;20124;-74
2024/02/06 16:05:17;;;;;;;32.35;12.15;;;;;;;17.23;100.00;101929.47;10594366;27;20734;-75
2024/02/06 16:10:42;;;;;;;31.75;15.45;;;;;;;17.48;100.00;101946.53;10522785;28;20040;-74
2024/02/06 16:16:06;;;;;;;33.22;18.52;;;;;;;17.79;100.00;101939.59;10547098;28;20492;-74
2024/02/06 16:21:29;;;;;;;25.58;13.93;;;;;;;18.00;100.00;101937.03;10549263;28;20120;-77
2024/02/06 16:26:54;;;;;;;24.42;12.93;;;;;;;18.02;100.00;101940.63;10536175;28;20051;-76
2024/02/06 16:32:16;;;;;;;22.17;7.03;;;;;;;17.80;100.00;101936.06;10565067;27;20051;-75
2024/02/06 16:37:38;;;;;;;36.10;20.08;;;;;;;17.62;100.00;101949.31;10539818;28;20071;-76
2024/02/06 16:43:03;;;;;;;37.20;29.75;;;;;;;17.71;100.00;101952.94;10546212;28;20100;-76
2024/02/06 16:48:25;;;;;;;26.73;16.20;;;;;;;17.86;100.00;101952.09;10561959;28;20039;-75
2024/02/06 16:53:49;;;;;;;28.63;23.77;;;;;;;17.80;100.00;101957.44;10563850;28;20048;-75
2024/02/06 16:59:13;;;;;;;33.40;22.50;;;;;;;17.62;100.00;101958.22;10566115;28;20067;-74
2024/02/06 17:04:36;;;;;;;41.38;37.05;;;;;;;17.44;100.00;101958.09;10574325;28;20521;-76
2024/02/06 17:09:58;;;;;;;20.52;11.10;;;;;;;17.32;100.00;101974.91;10562070;28;20055;-75
2024/02/06 17:15:22;;;;;;;19.65;7.78;;;;;;;17.24;100.00;101968.63;10562037;28;20100;-76
2024/02/06 17:20:45;;;;;;;16.45;7.45;;;;;;;17.10;100.00;101972.94;10573925;28;20048;-74
2024/02/06 17:26:07;;;;;;;19.90;7.20;;;;;;;16.78;100.00;101980.66;10549468;28;20059;-77
2024/02/06 17:31:31;;;;;;;14.98;7.15;;;;;;;16.40;100.00;101982.00;10546865;28;20043;-77
2024/02/06 17:36:54;;;;;;;17.70;7.55;;;;;;;16.13;100.00;101978.13;10532100;28;20600;-72
2024/02/06 17:42:16;;;;;;;19.70;8.88;;;;;;;15.79;100.00;101982.13;10561918;28;20051;-75
2024/02/06 17:47:40;;;;;;;13.27;6.70;;;;;;;15.54;100.00;101993.28;10558491;28;20043;-75
2024/02/06 17:53:03;;;;;;;19.08;8.02;;;;;;;15.21;100.00;101998.94;10529684;28;20115;-76
2024/02/06 17:58:25;;;;;;;18.58;9.93;;;;;;;14.87;100.00;101996.56;10539147;28;20040;-76
2024/02/06 18:03:49;;;;;;;19.77;10.13;;;;;;;14.56;100.00;101996.03;10544844;28;20055;-77
2024/02/06 18:09:14;;;;;;;17.25;8.88;;;;;;;14.36;100.00;101990.28;10531043;28;20071;-77
2024/02/06 18:14:37;;;;;;;23.70;10.30;;;;;;;14.31;100.00;101991.94;10555594;27;20043;-77
2024/02/06 18:20:04;;;;;;;25.17;12.25;;;;;;;14.23;100.00;102000.63;10586038;27;20135;-74
2024/02/06 18:25:28;;;;;;;18.77;7.90;;;;;;;14.08;100.00;101995.88;10574780;27;20039;-73
2024/02/06 18:30:51;;;;;;;13.55;8.20;;;;;;;13.98;100.00;101997.44;10567399;27;20491;-75
2024/02/06 18:36:15;;;;;;;17.00;10.25;;;;;;;13.66;100.00;102000.25;10582852;27;20047;-76
2024/02/06 18:41:37;;;;;;;20.10;10.13;;;;;;;13.51;100.00;101999.03;10615168;27;20043;-75
2024/02/06 18:47:00;;;;;;;30.52;20.80;;;;;;;13.31;100.00;102007.38;10599144;27;20047;-77
2024/02/06 18:52:26;;;;;;;74.55;63.40;;;;;;;13.09;100.00;101993.56;10579850;27;20054;-75
2024/02/06 18:57:48;;;;;;;49.55;34.15;;;;;;;12.97;100.00;101993.25;10598347;27;20403;-76
2024/02/06 19:03:11;;;;;;;37.90;26.33;;;;;;;12.80;100.00;101986.59;10574635;27;20047;-76
2024/02/06 19:08:35;;;;;;;44.28;31.05;;;;;;;12.68;100.00;101991.56;10592633;28;20054;-76
2024/02/06 19:13:58;;;;;;;29.95;19.25;;;;;;;12.80;100.00;101983.94;10602765;28;20051;-75
2024/02/06 19:19:22;;;;;;;40.20;22.77;;;;;;;12.78;100.00;101975.97;10554177;28;20039;-76
2024/02/06 19:24:47;;;;;;;38.42;27.45;;;;;;;12.52;100.00;101977.03;10553490;28;20134;-77
2024/02/06 19:30:10;;;;;;;29.48;22.38;;;;;;;12.56;100.00;101976.25;10587648;27;20050;-76
2024/02/06 19:35:34;;;;;;;23.83;16.08;;;;;;;12.58;100.00;101974.56;10570026;27;20046;-77
2024/02/06 19:40:59;;;;;;;35.55;22.05;;;;;;;12.38;100.00;101968.72;10539766;27;20051;-76
2024/02/06 19:46:22;;;;;;;24.75;14.23;;;;;;;12.25;100.00;101966.59;10556027;27;20101;-75
2024/02/06 19:51:48;;;;;;;27.23;15.55;;;;;;;12.33;100.00;101965.06;10559580;28;20044;-75
2024/02/06 19:57:12;;;;;;;29.20;15.60;;;;;;;12.52;100.00;101963.78;10526259;27;20183;-75
2024/02/06 20:02:34;;;;;;;21.25;9.68;;;;;;;12.76;100.00;101956.47;10563851;27;20125;-76
2024/02/06 20:07:57;;;;;;;24.33;15.80;;;;;;;12.71;100.00;101951.94;10596091;27;20046;-75
2024/02/06 20:13:23;;;;;;;27.65;15.73;;;;;;;12.69;100.00;101946.59;10599787;27;20047;-76
2024/02/06 20:18:45;;;;;;;29.83;18.15;;;;;;;12.64;100.00;101947.31;10610258;27;20043;-77
2024/02/06 20:24:11;;;;;;;19.63;8.07;;;;;;;12.93;100.00;101948.94;10649052;27;20114;-76
2024/02/06 20:29:36;;;;;;;19.33;6.95;;;;;;;13.50;100.00;101943.28;10606707;27;20074;-76
2024/02/06 20:34:59;;;;;;;24.17;7.80;;;;;;;13.63;100.00;101945.34;10605488;27;20046;-77
2024/02/06 20:40:21;;;;;;;18.42;6.90;;;;;;;13.70;100.00;101941.09;10612344;27;20053;-76
2024/02/06 20:45:45;;;;;;;17.75;6.82;;;;;;;13.83;100.00;101945.78;10619824;27;20047;-76
2024/02/06 20:51:08;;;;;;;20.85;6.65;;;;;;;13.88;100.00;101947.69;10599898;27;20055;-76
2024/02/06 20:56:30;;;;;;;16.67;5.35;;;;;;;14.01;100.00;101948.81;10583792;27;20043;-78
2024/02/06 21:01:54;;;;;;;18.58;7.53;;;;;;;14.18;100.00;101935.88;10593561;27;20573;-78
2024/02/06 21:07:17;;;;;;;17.25;5.82;;;;;;;14.16;100.00;101935.88;10595168;27;20043;-76
2024/02/06 21:12:39;;;;;;;15.50;6.28;;;;;;;14.15;100.00;101933.16;10583084;27;20055;-75
2024/02/06 21:18:04;;;;;;;14.27;5.82;;;;;;;14.13;100.00;101927.81;10594530;27;20565;-74
2024/02/06 21:23:28;;;;;;;20.95;5.70;;;;;;;14.14;100.00;101923.41;10606647;27;20063;-75
2024/02/06 21:28:51;;;;;;;16.38;6.25;;;;;;;14.18;100.00;101923.50;10588242;27;20075;-75
2024/02/06 21:34:16;;;;;;;14.98;7.13;;;;;;;14.19;100.00;101919.97;10604096;27;20054;-75
2024/02/06 21:39:38;;;;;;;13.85;6.40;;;;;;;14.22;100.00;101901.47;10584471;27;20062;-75
2024/02/06 21:45:04;;;;;;;18.38;6.40;;;;;;;14.22;100.00;101901.47;10582573;27;20058;-75
2024/02/06 21:50:28;;;;;;;16.83;6.85;;;;;;;14.28;100.00;101903.31;10596584;27;20391;-75
2024/02/06 21:55:50;;;;;;;18.33;6.45;;;;;;;14.26;100.00;101897.97;10615486;27;20138;-76
2024/02/06 22:01:13;;;;;;;14.43;6.53;;;;;;;14.25;100.00;101890.88;10607149;27;20043;-76
2024/02/06 22:06:37;;;;;;;20.55;7.00;;;;;;;14.30;100.00;101889.22;10586777;27;20197;-75
2024/02/06 22:12:00;;;;;;;21.02;6.38;;;;;;;14.32;100.00;101884.81;10604127;27;20096;-75
2024/02/06 22:17:23;;;;;;;13.73;5.80;;;;;;;14.35;100.00;101876.91;10560956;28;20400;-75
2024/02/06 22:22:47;;;;;;;20.98;6.88;;;;;;;14.30;100.00;101867.97;10532117;28;20058;-76
2024/02/06 22:28:11;;;;;;;14.32;6.05;;;;;;;14.34;100.00;101867.16;10536767;28;20044;-75
2024/02/06 22:33:33;;;;;;;12.43;5.13;;;;;;;14.51;100.00;101864.81;10558667;28;20057;-76
2024/02/06 22:38:57;;;;;;;15.57;7.00;;;;;;;14.46;100.00;101863.84;10572186;28;20143;-75
2024/02/06 22:44:20;;;;;;;19.85;5.38;;;;;;;14.50;100.00;101855.06;10570203;28;20116;-75
2024/02/06 22:49:42;;;;;;;16.95;5.78;;;;;;;14.52;100.00;101858.63;10548825;28;20586;-75
2024/02/06 22:55:08;;;;;;;13.98;5.20;;;;;;;14.45;100.00;101855.81;10552588;28;20062;-75
2024/02/06 23:00:30;;;;;;;14.00;6.13;;;;;;;14.43;100.00;101852.28;10570089;28;20115;-76
2024/02/06 23:05:53;;;;;;;18.90;6.03;;;;;;;14.44;100.00;101843.44;10526877;28;20490;-75
2024/02/06 23:11:17;;;;;;;14.38;5.97;;;;;;;14.29;100.00;101838.72;10543243;28;20077;-75
2024/02/06 23:16:39;;;;;;;15.15;5.10;;;;;;;14.39;100.00;101823.84;10555959;28;20499;-75
2024/02/06 23:22:02;;;;;;;18.98;5.40;;;;;;;14.28;100.00;101824.53;10557326;28;20055;-75
2024/02/06 23:27:26;;;;;;;17.23;4.97;;;;;;;14.36;100.00;101804.31;10555883;28;20040;-75
2024/02/06 23:32:48;;;;;;;15.95;5.00;;;;;;;14.77;100.00;101797.91;10555855;28;20097;-75
2024/02/06 23:38:11;;;;;;;11.68;4.78;;;;;;;14.88;100.00;101801.63;10557611;28;20039;-75
2024/02/06 23:43:35;;;;;;;8.02;3.42;;;;;;;14.80;100.00;101790.88;10571646;28;20043;-75
2024/02/06 23:48:59;;;;;;;20.52;4.97;;;;;;;14.91;100.00;101789.25;10570564;28;20040;-75
2024/02/06 23:54:21;;;;;;;17.52;4.90;;;;;;;15.01;100.00;101784.97;10569974;28;20067;-74
2024/02/06 23:59:47;;;;;;;12.25;3.75;;;;;;;14.94;100.00;101777.78;10570301;28;20218;-74
